메인 페이지
METAR-TAF:

METAR-TAF

공항 :

지브롤터, 지브롤터

지브롤터 공항

위도: 36-09N, 경도: 005-21W, 고도: 5m

현재 날씨관측

예보는 59분 전, 08:50시(UTC)에 발표되었습니다.
22kt
온도 15°C
습도 82%
기압 1022 hPa
시정 10km 이상
고도 1400ft 상공 구름 조금
고도 2500ft 상공 구름 많음
고도 25000ft 상공 구름 많음

METAR: LXGB 180850Z 09022KT 9999 FEW014 BKN025 BKN250 15/12 Q1022 NOSIG

시각: 10:49 (09:49 UTC)

예보

예보는 2 시간 21분 전, 07:28시(UTC)에 발표되었습니다.
예보 대상 시간: 18일 09시부터 18일 18시까지 (UTC)
20kt, 순간 최대 풍속 30kt
시정 10km 이상
고도 1400ft 상공 구름 조금
고도 2500ft 상공 구름 보통
일시적
18일 09시부터 18일 18시까지 (UTC)
고도 2000ft 상공 구름 보통

TAF: LXGB 180728Z 1809/1818 08020G30KT 9999 FEW014 SCT025 TEMPO 1809/1818 SCT020

4,000개 이상의 공항 관측 자료 및 예보 (METAR 및 TAF 보고).

지도상에서 검색 가능한 기상관측소가 노란 점과 빨간 점으로 표시되어 있습니다.

기상관측소 명을 보려면 표시 위로 마우스를 이동하세요.

날씨 관측과 예보를 보려면 클릭하세요.

지도 변경 : 확대하려면 엑스 표시가 있는 녹색 버튼, 축소하려면 빼기 표시가 있는 녹색 버튼, 다음 페이지의 지도를 보려면 녹색 화살표를 클릭하세요.


METAR-TAF: